• Join FlightAware (Why Join?)
  • Login
  • US Flag 
01:30PM EDT


 

Airport Tracker/Info


-or-


 

Live Flight TrackerFlight Track Log ✈ NKS612 ✈ 01-May-2013 ✈ KMSP - KORD

Flight Track Log - Related Links

Times and Time Zones

All times are in EDT time to prevent confusion due to time zone crossing. See the NKS612 flight status page for this flight to view local times or setup timezone preferences in your user account.

Time Position Orientation Groundspeed Altitude Reporting Facility
EDT Latitude Longitude Course Direction KTS MPH feet Rate Location/Type
07:39AM 44.8833 -93.3000 184° South 207 238 3,300  Level Minneapolis TRACON
07:40AM 44.8003 -93.3081 184° South 281 323 6,600 3,360 Climbing Minneapolis Center
07:41AM 44.7169 -93.2564 156° South 287 330 10,800 3,840 Climbing Minneapolis Center
07:42AM 44.6506 -93.2072 152° Southeast 277 319 14,500 2,880 Climbing Minneapolis Center
07:43AM 44.5842 -93.1583 152° Southeast 276 318 16,700 2,100 Climbing Minneapolis Center
07:44AM 44.5261 -93.0719 133° Southeast 314 361 18,800 2,040 Climbing Minneapolis Center
07:45AM 44.4758 -92.9617 123° Southeast 336 387 20,900 1,860 Climbing Minneapolis Center
07:46AM 44.4233 -92.8489 123° Southeast 346 398 22,600 1,320 Climbing Minneapolis Center
07:47AM 44.3661 -92.7275 123° Southeast 370 426 23,700 1,200 Climbing Minneapolis Center
07:48AM 44.3064 -92.5986 123° Southeast 393 452 25,100 1,560 Climbing Minneapolis Center
07:49AM 44.2308 -92.4411 124° Southeast 408 470 26,900 1,560 Climbing Minneapolis Center
07:50AM 44.1672 -92.3078 124° Southeast 414 476 28,300 1,200 Climbing Minneapolis Center
07:52AM 44.1011 -92.1697 124° Southeast 426 490 29,400 1,200 Climbing Minneapolis Center
07:53AM 44.0336 -92.0275 123° Southeast 440 506 30,800 780 Climbing Minneapolis Center
07:54AM 43.9658 -91.8858 124° Southeast 441 507 31,000 60 Climbing Minneapolis Center
07:55AM 43.8969 -91.7461 124° Southeast 442 509 31,000  Level Minneapolis Center
07:56AM 43.8356 -91.6161 123° Southeast 439 505 31,000  Level Minneapolis Center
07:57AM 43.7675 -91.4769 124° Southeast 438 504 31,000  Level Minneapolis Center
07:58AM 43.6997 -91.3394 124° Southeast 436 502 31,000  Level Minneapolis Center
07:59AM 43.6197 -91.1756 124° Southeast 433 498 31,000  Level Minneapolis Center
08:00AM 43.5522 -91.0408 125° Southeast 430 495 31,000  Level Minneapolis Center
08:01AM 43.4844 -90.9039 124° Southeast 432 497 31,000  Level Minneapolis Center
08:02AM 43.4150 -90.7653 125° Southeast 438 504 31,000  Level Minneapolis Center
08:03AM 43.3436 -90.6236 125° Southeast 447 514 31,000  Level Minneapolis Center
08:04AM 43.2722 -90.4833 125° Southeast 450 518 31,000  Level Minneapolis Center
08:05AM 43.2017 -90.3442 125° Southeast 449 517 31,000 -420 Level Minneapolis Center
08:06AM 43.1289 -90.2022 125° Southeast 444 511 30,200 -900 Descending Minneapolis Center
08:07AM 43.0617 -90.0711 125° Southeast 428 493 29,200 -1,140 Descending Minneapolis Center
08:08AM 42.9831 -89.9169 125° Southeast 426 490 27,900 -1,620 Descending Minneapolis Center
08:09AM 42.9150 -89.7878 126° Southeast 423 487 26,000 -1,800 Descending Minneapolis Center
08:10AM 42.8369 -89.6383 125° Southeast 416 479 24,000 -1,020 Descending Chicago Center
08:11AM 42.7736 -89.5169 125° Southeast 396 456 23,800 -1,020 Descending Chicago Center
08:12AM 42.7072 -89.3903 125° Southeast 408 470 22,000 -900 Descending Chicago Center
08:13AM 42.6400 -89.2600 125° Southeast 422 486 22,000 -840 Level Chicago Center
08:14AM 42.5722 -89.1319 126° Southeast 419 482 20,300 -1,980 Descending Chicago Center
08:15AM 42.5250 -88.9950 115° Southeast 404 465 18,000 -3,120 Descending Chicago Center
08:16AM 42.4786 -88.8436 113° Southeast 374 430 14,000 -3,540 Descending Chicago Center
08:17AM 42.4425 -88.7208 112° Southeast 354 407 10,700 -2,280 Descending Chicago Center
08:18AM 42.4097 -88.6106 112° Southeast 321 369 9,400 -840 Descending Chicago Center
08:19AM 42.3797 -88.5169 113° Southeast 280 322 9,000 -300 Descending Chicago Center
08:20AM 42.3275 -88.4258 128° Southeast 279 321 8,900 -840 Descending Chicago Center
08:21AM 42.2822 -88.3444 127° Southeast 273 314 7,300 -1,620 Descending Chicago Center
08:22AM 42.2364 -88.2600 126° Southeast 276 318 5,600 -840 Descending Chicago Center
08:24AM 42.1453 -88.1039 128° Southeast 266 306 4,800 -780 Descending Chicago Center
08:25AM 42.0833 -88.0500 147° Southeast 225 259 3,300 -1,200 Descending Chicago TRACON
08:26AM 42.0500 -88.0000 132° Southeast 194 223 2,400 -1,080 Descending Chicago TRACON
08:27AM 42.0167 -87.9500 132° Southeast 139 160 1,200 -1,200 Descending Chicago TRACON
08:29AM 41.9817 -87.9067 180° South  Level Estimated
08:36AM 41.9817 -87.9067 180° South  Level Estimated